Main page
METAR-TAF:

METAR-TAF

Airports :

Kédougou Airport

Kédougou, Senegal

latitude: 12-34N, longitude: 012-13W, elevation: 178 m

Current weather observation

The report was made 1 hour and 4 minutes ago, at 18:00 UTC
Calm wind
Temperature 31°C
Humidity 75%
Pressure 1012 hPa
Visibility 10 km or more
Scattered clouds at a height of 1600 ft

METAR: GOTK 161800Z 00000KT 9999 SCT016 31/26 Q1012

Time: 19:04 (19:04 UTC)


TAF: missing

Weather observations and forecasts of more than 4000 airports (METAR and TAF reports).

The available stations are represented by yellow and red dots on the map.

Hover mouse over dot to see the name of the station.

Then click to see weather observations and forecasts.

To change the map : click on the green buttons with a black cross to zoom in, on the green button with a dash to zoom out, or on the green arrows for adjacent maps.


METAR-TAF: